sensor_id;sensor_type;location;lat;lon;timestamp;P1;durP1;ratioP1;P2;durP2;ratioP2
1178;SDS011;578;48.408;10.004;2023-02-12T00:01:49;25.83;;;15.02;;
1178;SDS011;578;48.408;10.004;2023-02-12T00:04:16;20.70;;;14.10;;
1178;SDS011;578;48.408;10.004;2023-02-12T00:06:42;26.85;;;14.88;;
1178;SDS011;578;48.408;10.004;2023-02-12T00:09:10;25.70;;;15.65;;
1178;SDS011;578;48.408;10.004;2023-02-12T00:11:37;21.35;;;14.70;;
1178;SDS011;578;48.408;10.004;2023-02-12T00:14:04;24.02;;;14.63;;
1178;SDS011;578;48.408;10.004;2023-02-12T00:16:30;22.38;;;14.35;;
1178;SDS011;578;48.408;10.004;2023-02-12T00:18:57;24.27;;;15.90;;
1178;SDS011;578;48.408;10.004;2023-02-12T00:21:24;24.58;;;15.38;;
1178;SDS011;578;48.408;10.004;2023-02-12T00:23:51;28.05;;;15.30;;
1178;SDS011;578;48.408;10.004;2023-02-12T00:26:20;28.92;;;14.88;;
1178;SDS011;578;48.408;10.004;2023-02-12T00:28:47;28.00;;;15.70;;
1178;SDS011;578;48.408;10.004;2023-02-12T00:31:14;26.52;;;15.48;;
1178;SDS011;578;48.408;10.004;2023-02-12T00:33:43;24.15;;;14.48;;
1178;SDS011;578;48.408;10.004;2023-02-12T00:36:12;22.80;;;15.40;;
1178;SDS011;578;48.408;10.004;2023-02-12T00:38:40;22.73;;;13.75;;
1178;SDS011;578;48.408;10.004;2023-02-12T00:41:07;24.00;;;15.00;;
1178;SDS011;578;48.408;10.004;2023-02-12T00:43:35;24.25;;;16.65;;
1178;SDS011;578;48.408;10.004;2023-02-12T00:46:02;24.13;;;14.30;;
1178;SDS011;578;48.408;10.004;2023-02-12T00:48:30;19.02;;;13.75;;
1178;SDS011;578;48.408;10.004;2023-02-12T00:50:57;26.63;;;16.20;;
1178;SDS011;578;48.408;10.004;2023-02-12T00:53:24;25.30;;;14.00;;
1178;SDS011;578;48.408;10.004;2023-02-12T00:55:51;21.27;;;14.98;;
1178;SDS011;578;48.408;10.004;2023-02-12T00:58:18;23.30;;;15.18;;
1178;SDS011;578;48.408;10.004;2023-02-12T01:00:46;24.90;;;15.35;;
1178;SDS011;578;48.408;10.004;2023-02-12T01:03:13;21.10;;;13.90;;
1178;SDS011;578;48.408;10.004;2023-02-12T01:05:40;25.15;;;14.95;;
1178;SDS011;578;48.408;10.004;2023-02-12T01:08:07;19.03;;;13.97;;
1178;SDS011;578;48.408;10.004;2023-02-12T01:10:37;25.05;;;14.50;;
1178;SDS011;578;48.408;10.004;2023-02-12T01:13:04;29.25;;;13.98;;
1178;SDS011;578;48.408;10.004;2023-02-12T01:15:30;26.27;;;15.32;;
1178;SDS011;578;48.408;10.004;2023-02-12T01:17:58;20.98;;;15.02;;
1178;SDS011;578;48.408;10.004;2023-02-12T01:20:25;23.20;;;15.10;;
1178;SDS011;578;48.408;10.004;2023-02-12T01:22:52;27.40;;;15.40;;
1178;SDS011;578;48.408;10.004;2023-02-12T01:25:18;25.08;;;16.35;;
1178;SDS011;578;48.408;10.004;2023-02-12T01:27:45;20.92;;;13.55;;
1178;SDS011;578;48.408;10.004;2023-02-12T01:30:12;24.90;;;14.52;;
1178;SDS011;578;48.408;10.004;2023-02-12T01:32:40;26.85;;;14.93;;
1178;SDS011;578;48.408;10.004;2023-02-12T01:35:09;25.17;;;15.43;;
1178;SDS011;578;48.408;10.004;2023-02-12T01:37:36;23.85;;;15.43;;
1178;SDS011;578;48.408;10.004;2023-02-12T01:40:04;26.13;;;15.90;;
1178;SDS011;578;48.408;10.004;2023-02-12T01:42:32;23.75;;;14.30;;
1178;SDS011;578;48.408;10.004;2023-02-12T01:48:09;22.50;;;15.25;;
1178;SDS011;578;48.408;10.004;2023-02-12T01:50:37;27.10;;;15.63;;
1178;SDS011;578;48.408;10.004;2023-02-12T01:53:05;23.45;;;15.82;;
1178;SDS011;578;48.408;10.004;2023-02-12T01:55:31;30.03;;;17.40;;
1178;SDS011;578;48.408;10.004;2023-02-12T01:57:58;34.72;;;18.30;;
1178;SDS011;578;48.408;10.004;2023-02-12T02:00:25;30.52;;;19.55;;
1178;SDS011;578;48.408;10.004;2023-02-12T02:02:52;36.72;;;19.48;;
1178;SDS011;578;48.408;10.004;2023-02-12T02:05:22;31.50;;;17.52;;
1178;SDS011;578;48.408;10.004;2023-02-12T02:07:55;31.00;;;16.27;;
1178;SDS011;578;48.408;10.004;2023-02-12T02:10:22;24.35;;;15.45;;
1178;SDS011;578;48.408;10.004;2023-02-12T02:12:49;26.70;;;14.90;;
1178;SDS011;578;48.408;10.004;2023-02-12T02:15:33;25.50;;;15.50;;
1178;SDS011;578;48.408;10.004;2023-02-12T02:18:05;31.50;;;16.70;;
1178;SDS011;578;48.408;10.004;2023-02-12T02:23:47;28.25;;;16.67;;
1178;SDS011;578;48.408;10.004;2023-02-12T02:26:30;31.27;;;16.83;;
1178;SDS011;578;48.408;10.004;2023-02-12T02:32:30;27.40;;;15.30;;
1178;SDS011;578;48.408;10.004;2023-02-12T02:35:04;27.77;;;16.23;;
1178;SDS011;578;48.408;10.004;2023-02-12T02:37:38;30.00;;;17.20;;
1178;SDS011;578;48.408;10.004;2023-02-12T02:40:11;30.52;;;16.80;;
1178;SDS011;578;48.408;10.004;2023-02-12T02:42:42;27.13;;;17.23;;
1178;SDS011;578;48.408;10.004;2023-02-12T02:45:12;28.40;;;16.90;;
1178;SDS011;578;48.408;10.004;2023-02-12T02:47:43;28.10;;;17.80;;
1178;SDS011;578;48.408;10.004;2023-02-12T02:50:14;26.40;;;16.33;;
1178;SDS011;578;48.408;10.004;2023-02-12T02:52:45;30.02;;;18.05;;
1178;SDS011;578;48.408;10.004;2023-02-12T02:55:16;25.03;;;15.77;;
1178;SDS011;578;48.408;10.004;2023-02-12T02:57:45;24.67;;;16.57;;
1178;SDS011;578;48.408;10.004;2023-02-12T03:00:17;28.27;;;16.93;;
1178;SDS011;578;48.408;10.004;2023-02-12T03:02:46;24.07;;;15.30;;
1178;SDS011;578;48.408;10.004;2023-02-12T03:05:17;26.03;;;15.10;;
1178;SDS011;578;48.408;10.004;2023-02-12T03:07:48;28.13;;;15.73;;
1178;SDS011;578;48.408;10.004;2023-02-12T03:10:18;25.13;;;16.60;;
1178;SDS011;578;48.408;10.004;2023-02-12T03:12:50;35.30;;;16.93;;
1178;SDS011;578;48.408;10.004;2023-02-12T03:15:21;29.75;;;17.83;;
1178;SDS011;578;48.408;10.004;2023-02-12T03:17:52;27.63;;;17.17;;
1178;SDS011;578;48.408;10.004;2023-02-12T03:20:19;34.17;;;17.70;;
1178;SDS011;578;48.408;10.004;2023-02-12T03:22:50;32.20;;;17.80;;
1178;SDS011;578;48.408;10.004;2023-02-12T03:25:21;28.33;;;16.30;;
1178;SDS011;578;48.408;10.004;2023-02-12T03:27:56;32.53;;;17.45;;
1178;SDS011;578;48.408;10.004;2023-02-12T03:30:28;26.90;;;16.93;;
1178;SDS011;578;48.408;10.004;2023-02-12T03:33:06;30.23;;;17.20;;
1178;SDS011;578;48.408;10.004;2023-02-12T03:35:45;28.63;;;17.77;;
1178;SDS011;578;48.408;10.004;2023-02-12T03:38:20;24.57;;;16.07;;
1178;SDS011;578;48.408;10.004;2023-02-12T03:40:56;30.13;;;16.53;;
1178;SDS011;578;48.408;10.004;2023-02-12T03:43:29;29.23;;;16.87;;
1178;SDS011;578;48.408;10.004;2023-02-12T03:45:59;30.53;;;17.80;;
1178;SDS011;578;48.408;10.004;2023-02-12T03:48:32;29.00;;;16.90;;
1178;SDS011;578;48.408;10.004;2023-02-12T03:51:02;27.80;;;16.87;;
1178;SDS011;578;48.408;10.004;2023-02-12T03:53:36;31.03;;;18.17;;
1178;SDS011;578;48.408;10.004;2023-02-12T03:56:04;37.92;;;16.52;;
1178;SDS011;578;48.408;10.004;2023-02-12T03:58:35;31.67;;;17.97;;
1178;SDS011;578;48.408;10.004;2023-02-12T04:01:06;28.02;;;18.10;;
1178;SDS011;578;48.408;10.004;2023-02-12T04:03:35;29.27;;;17.67;;
1178;SDS011;578;48.408;10.004;2023-02-12T04:06:02;32.20;;;18.70;;
1178;SDS011;578;48.408;10.004;2023-02-12T04:08:29;32.50;;;20.20;;
1178;SDS011;578;48.408;10.004;2023-02-12T04:10:59;33.87;;;19.40;;
1178;SDS011;578;48.408;10.004;2023-02-12T04:13:35;35.40;;;20.00;;
1178;SDS011;578;48.408;10.004;2023-02-12T04:16:11;28.90;;;18.80;;
1178;SDS011;578;48.408;10.004;2023-02-12T04:18:46;32.80;;;19.00;;
1178;SDS011;578;48.408;10.004;2023-02-12T04:21:17;35.53;;;23.97;;
1178;SDS011;578;48.408;10.004;2023-02-12T04:24:01;34.93;;;22.90;;
1178;SDS011;578;48.408;10.004;2023-02-12T04:26:33;41.03;;;24.33;;
1178;SDS011;578;48.408;10.004;2023-02-12T04:29:09;32.63;;;20.57;;
1178;SDS011;578;48.408;10.004;2023-02-12T04:31:43;33.37;;;22.60;;
1178;SDS011;578;48.408;10.004;2023-02-12T04:34:16;34.20;;;20.40;;
1178;SDS011;578;48.408;10.004;2023-02-12T04:36:48;40.87;;;24.17;;
1178;SDS011;578;48.408;10.004;2023-02-12T04:39:19;36.40;;;21.87;;
1178;SDS011;578;48.408;10.004;2023-02-12T04:41:49;33.30;;;19.87;;
1178;SDS011;578;48.408;10.004;2023-02-12T04:44:18;35.20;;;18.97;;
1178;SDS011;578;48.408;10.004;2023-02-12T04:46:48;32.77;;;20.57;;
1178;SDS011;578;48.408;10.004;2023-02-12T04:49:17;31.30;;;18.98;;
1178;SDS011;578;48.408;10.004;2023-02-12T04:51:46;32.27;;;20.57;;
1178;SDS011;578;48.408;10.004;2023-02-12T04:54:13;30.50;;;19.92;;
1178;SDS011;578;48.408;10.004;2023-02-12T04:56:41;36.97;;;18.67;;
1178;SDS011;578;48.408;10.004;2023-02-12T04:59:08;33.33;;;18.00;;
1178;SDS011;578;48.408;10.004;2023-02-12T05:01:36;32.85;;;18.77;;
1178;SDS011;578;48.408;10.004;2023-02-12T05:04:03;31.58;;;17.63;;
1178;SDS011;578;48.408;10.004;2023-02-12T05:06:34;29.23;;;17.75;;
1178;SDS011;578;48.408;10.004;2023-02-12T05:09:02;29.70;;;19.30;;
1178;SDS011;578;48.408;10.004;2023-02-12T05:11:29;31.63;;;19.17;;
1178;SDS011;578;48.408;10.004;2023-02-12T05:13:55;30.43;;;18.50;;
1178;SDS011;578;48.408;10.004;2023-02-12T05:16:22;30.80;;;18.47;;
1178;SDS011;578;48.408;10.004;2023-02-12T05:18:49;33.17;;;20.57;;
1178;SDS011;578;48.408;10.004;2023-02-12T05:21:16;32.47;;;20.00;;
1178;SDS011;578;48.408;10.004;2023-02-12T05:23:44;42.43;;;21.37;;
1178;SDS011;578;48.408;10.004;2023-02-12T05:26:11;36.97;;;23.90;;
1178;SDS011;578;48.408;10.004;2023-02-12T05:28:42;36.65;;;23.25;;
1178;SDS011;578;48.408;10.004;2023-02-12T05:31:09;37.27;;;22.93;;
1178;SDS011;578;48.408;10.004;2023-02-12T05:33:40;41.90;;;24.63;;
1178;SDS011;578;48.408;10.004;2023-02-12T05:36:08;39.10;;;25.40;;
1178;SDS011;578;48.408;10.004;2023-02-12T05:38:36;36.00;;;22.33;;
1178;SDS011;578;48.408;10.004;2023-02-12T05:41:05;34.37;;;22.83;;
1178;SDS011;578;48.408;10.004;2023-02-12T05:43:33;32.00;;;22.50;;
1178;SDS011;578;48.408;10.004;2023-02-12T05:46:00;36.67;;;23.33;;
1178;SDS011;578;48.408;10.004;2023-02-12T05:48:28;32.83;;;18.90;;
1178;SDS011;578;48.408;10.004;2023-02-12T05:51:00;37.67;;;21.40;;
1178;SDS011;578;48.408;10.004;2023-02-12T05:53:27;32.50;;;18.60;;
1178;SDS011;578;48.408;10.004;2023-02-12T05:55:53;28.60;;;19.50;;
1178;SDS011;578;48.408;10.004;2023-02-12T05:58:22;34.33;;;18.57;;
1178;SDS011;578;48.408;10.004;2023-02-12T06:00:48;28.07;;;17.97;;
1178;SDS011;578;48.408;10.004;2023-02-12T06:03:15;32.45;;;19.02;;
1178;SDS011;578;48.408;10.004;2023-02-12T06:05:42;35.60;;;19.70;;
1178;SDS011;578;48.408;10.004;2023-02-12T06:08:08;30.47;;;18.80;;
1178;SDS011;578;48.408;10.004;2023-02-12T06:10:35;34.80;;;19.73;;
1178;SDS011;578;48.408;10.004;2023-02-12T06:13:02;35.03;;;18.25;;
1178;SDS011;578;48.408;10.004;2023-02-12T06:15:30;32.38;;;17.73;;
1178;SDS011;578;48.408;10.004;2023-02-12T06:17:57;30.47;;;19.03;;
1178;SDS011;578;48.408;10.004;2023-02-12T06:20:23;40.30;;;18.43;;
1178;SDS011;578;48.408;10.004;2023-02-12T06:22:50;35.05;;;18.65;;
1178;SDS011;578;48.408;10.004;2023-02-12T06:25:17;31.83;;;18.47;;
1178;SDS011;578;48.408;10.004;2023-02-12T06:27:43;39.13;;;20.57;;
1178;SDS011;578;48.408;10.004;2023-02-12T06:30:10;35.80;;;20.03;;
1178;SDS011;578;48.408;10.004;2023-02-12T06:32:39;31.60;;;18.60;;
1178;SDS011;578;48.408;10.004;2023-02-12T06:35:06;29.43;;;18.50;;
1178;SDS011;578;48.408;10.004;2023-02-12T06:37:33;33.87;;;20.17;;
1178;SDS011;578;48.408;10.004;2023-02-12T06:40:01;32.13;;;19.15;;
1178;SDS011;578;48.408;10.004;2023-02-12T06:42:27;37.03;;;22.20;;
1178;SDS011;578;48.408;10.004;2023-02-12T06:44:54;38.27;;;23.53;;
1178;SDS011;578;48.408;10.004;2023-02-12T06:47:21;35.42;;;23.05;;
1178;SDS011;578;48.408;10.004;2023-02-12T06:49:49;43.90;;;24.43;;
1178;SDS011;578;48.408;10.004;2023-02-12T06:52:15;38.10;;;22.87;;
1178;SDS011;578;48.408;10.004;2023-02-12T06:54:42;37.30;;;22.70;;
1178;SDS011;578;48.408;10.004;2023-02-12T06:57:08;36.80;;;24.43;;
1178;SDS011;578;48.408;10.004;2023-02-12T06:59:35;43.63;;;25.10;;
1178;SDS011;578;48.408;10.004;2023-02-12T07:02:02;41.37;;;23.40;;
1178;SDS011;578;48.408;10.004;2023-02-12T07:04:28;36.83;;;25.20;;
1178;SDS011;578;48.408;10.004;2023-02-12T07:06:57;43.40;;;25.57;;
1178;SDS011;578;48.408;10.004;2023-02-12T07:09:23;46.53;;;26.63;;
1178;SDS011;578;48.408;10.004;2023-02-12T07:11:51;47.10;;;28.13;;
1178;SDS011;578;48.408;10.004;2023-02-12T07:14:20;47.37;;;27.13;;
1178;SDS011;578;48.408;10.004;2023-02-12T07:16:47;41.73;;;26.77;;
1178;SDS011;578;48.408;10.004;2023-02-12T07:19:13;46.27;;;26.80;;
1178;SDS011;578;48.408;10.004;2023-02-12T07:21:41;45.47;;;26.67;;
1178;SDS011;578;48.408;10.004;2023-02-12T07:24:10;46.90;;;25.80;;
1178;SDS011;578;48.408;10.004;2023-02-12T07:26:37;39.57;;;26.00;;
1178;SDS011;578;48.408;10.004;2023-02-12T07:29:04;47.25;;;27.08;;
1178;SDS011;578;48.408;10.004;2023-02-12T07:31:31;52.47;;;29.13;;
1178;SDS011;578;48.408;10.004;2023-02-12T07:33:58;51.37;;;28.13;;
1178;SDS011;578;48.408;10.004;2023-02-12T07:36:26;46.87;;;26.47;;
1178;SDS011;578;48.408;10.004;2023-02-12T07:38:54;46.07;;;25.40;;
1178;SDS011;578;48.408;10.004;2023-02-12T07:41:25;46.50;;;27.57;;
1178;SDS011;578;48.408;10.004;2023-02-12T07:43:53;50.13;;;29.13;;
1178;SDS011;578;48.408;10.004;2023-02-12T07:46:21;57.30;;;29.50;;
1178;SDS011;578;48.408;10.004;2023-02-12T07:48:53;47.77;;;28.87;;
1178;SDS011;578;48.408;10.004;2023-02-12T07:51:21;52.93;;;30.90;;
1178;SDS011;578;48.408;10.004;2023-02-12T07:53:48;76.17;;;31.20;;
1178;SDS011;578;48.408;10.004;2023-02-12T07:56:16;54.70;;;28.90;;
1178;SDS011;578;48.408;10.004;2023-02-12T07:58:46;60.13;;;30.40;;
1178;SDS011;578;48.408;10.004;2023-02-12T08:01:15;53.50;;;30.37;;
1178;SDS011;578;48.408;10.004;2023-02-12T08:03:43;56.30;;;30.60;;
1178;SDS011;578;48.408;10.004;2023-02-12T08:06:11;57.87;;;30.33;;
1178;SDS011;578;48.408;10.004;2023-02-12T08:08:39;62.27;;;28.47;;
1178;SDS011;578;48.408;10.004;2023-02-12T08:11:07;62.60;;;32.27;;
1178;SDS011;578;48.408;10.004;2023-02-12T08:13:34;60.03;;;32.20;;
1178;SDS011;578;48.408;10.004;2023-02-12T08:16:03;57.67;;;28.10;;
1178;SDS011;578;48.408;10.004;2023-02-12T08:18:32;55.60;;;30.47;;
1178;SDS011;578;48.408;10.004;2023-02-12T08:21:02;61.07;;;30.03;;
1178;SDS011;578;48.408;10.004;2023-02-12T08:23:30;63.97;;;30.40;;
1178;SDS011;578;48.408;10.004;2023-02-12T08:26:03;51.73;;;29.23;;
1178;SDS011;578;48.408;10.004;2023-02-12T08:28:31;69.87;;;29.50;;
1178;SDS011;578;48.408;10.004;2023-02-12T08:30:58;55.70;;;28.70;;
1178;SDS011;578;48.408;10.004;2023-02-12T08:33:27;55.90;;;29.87;;
1178;SDS011;578;48.408;10.004;2023-02-12T08:35:59;62.30;;;28.90;;
1178;SDS011;578;48.408;10.004;2023-02-12T08:38:27;56.73;;;26.93;;
1178;SDS011;578;48.408;10.004;2023-02-12T08:40:53;61.83;;;28.07;;
1178;SDS011;578;48.408;10.004;2023-02-12T08:43:20;63.63;;;28.30;;
1178;SDS011;578;48.408;10.004;2023-02-12T08:45:47;60.27;;;30.10;;
1178;SDS011;578;48.408;10.004;2023-02-12T08:48:13;54.47;;;26.10;;
1178;SDS011;578;48.408;10.004;2023-02-12T08:50:41;48.90;;;25.00;;
1178;SDS011;578;48.408;10.004;2023-02-12T08:53:08;52.60;;;26.00;;
1178;SDS011;578;48.408;10.004;2023-02-12T08:55:35;51.67;;;23.67;;
1178;SDS011;578;48.408;10.004;2023-02-12T08:58:02;43.50;;;22.93;;
1178;SDS011;578;48.408;10.004;2023-02-12T09:00:28;49.03;;;22.37;;
1178;SDS011;578;48.408;10.004;2023-02-12T09:02:55;49.00;;;24.37;;
1178;SDS011;578;48.408;10.004;2023-02-12T09:05:22;50.47;;;24.83;;
1178;SDS011;578;48.408;10.004;2023-02-12T09:07:50;46.70;;;24.80;;
1178;SDS011;578;48.408;10.004;2023-02-12T09:10:17;49.23;;;25.50;;
1178;SDS011;578;48.408;10.004;2023-02-12T09:12:44;42.40;;;23.53;;
1178;SDS011;578;48.408;10.004;2023-02-12T09:15:12;43.73;;;22.47;;
1178;SDS011;578;48.408;10.004;2023-02-12T09:17:39;41.93;;;21.80;;
1178;SDS011;578;48.408;10.004;2023-02-12T09:20:07;37.57;;;21.67;;
1178;SDS011;578;48.408;10.004;2023-02-12T09:22:35;37.90;;;21.90;;
1178;SDS011;578;48.408;10.004;2023-02-12T09:25:04;35.10;;;18.47;;
1178;SDS011;578;48.408;10.004;2023-02-12T09:27:31;36.03;;;19.63;;
1178;SDS011;578;48.408;10.004;2023-02-12T09:29:58;36.40;;;18.33;;
1178;SDS011;578;48.408;10.004;2023-02-12T09:32:24;34.60;;;18.60;;
1178;SDS011;578;48.408;10.004;2023-02-12T09:34:51;33.13;;;18.17;;
1178;SDS011;578;48.408;10.004;2023-02-12T09:37:18;31.77;;;17.13;;
1178;SDS011;578;48.408;10.004;2023-02-12T09:39:45;36.33;;;19.00;;
1178;SDS011;578;48.408;10.004;2023-02-12T09:42:19;36.23;;;19.70;;
1178;SDS011;578;48.408;10.004;2023-02-12T09:45:01;37.10;;;19.93;;
1178;SDS011;578;48.408;10.004;2023-02-12T09:47:36;36.07;;;18.13;;
1178;SDS011;578;48.408;10.004;2023-02-12T09:50:16;29.83;;;17.27;;
1178;SDS011;578;48.408;10.004;2023-02-12T09:53:02;26.00;;;14.80;;
1178;SDS011;578;48.408;10.004;2023-02-12T09:55:31;22.10;;;13.83;;
1178;SDS011;578;48.408;10.004;2023-02-12T09:58:01;25.03;;;13.30;;
1178;SDS011;578;48.408;10.004;2023-02-12T10:00:32;20.40;;;10.93;;
1178;SDS011;578;48.408;10.004;2023-02-12T10:02:59;20.90;;;11.93;;
1178;SDS011;578;48.408;10.004;2023-02-12T10:05:28;21.50;;;11.20;;
1178;SDS011;578;48.408;10.004;2023-02-12T10:08:05;19.80;;;11.10;;
1178;SDS011;578;48.408;10.004;2023-02-12T10:10:46;21.70;;;11.00;;
1178;SDS011;578;48.408;10.004;2023-02-12T10:13:20;32.63;;;13.00;;
1178;SDS011;578;48.408;10.004;2023-02-12T10:15:57;22.63;;;11.90;;
1178;SDS011;578;48.408;10.004;2023-02-12T10:18:39;23.33;;;11.70;;
1178;SDS011;578;48.408;10.004;2023-02-12T10:21:19;27.07;;;12.83;;
1178;SDS011;578;48.408;10.004;2023-02-12T10:24:04;20.47;;;11.10;;
1178;SDS011;578;48.408;10.004;2023-02-12T10:26:46;18.03;;;10.87;;
1178;SDS011;578;48.408;10.004;2023-02-12T10:29:16;17.50;;;9.67;;
1178;SDS011;578;48.408;10.004;2023-02-12T10:31:46;18.43;;;10.57;;
1178;SDS011;578;48.408;10.004;2023-02-12T10:34:19;21.73;;;12.73;;
1178;SDS011;578;48.408;10.004;2023-02-12T10:36:47;24.27;;;12.67;;
1178;SDS011;578;48.408;10.004;2023-02-12T10:39:18;24.23;;;13.03;;
1178;SDS011;578;48.408;10.004;2023-02-12T10:41:48;21.00;;;11.30;;
1178;SDS011;578;48.408;10.004;2023-02-12T10:44:20;26.03;;;12.57;;
1178;SDS011;578;48.408;10.004;2023-02-12T10:46:47;19.17;;;10.30;;
1178;SDS011;578;48.408;10.004;2023-02-12T10:49:15;18.63;;;10.50;;
1178;SDS011;578;48.408;10.004;2023-02-12T10:51:55;23.07;;;12.40;;
1178;SDS011;578;48.408;10.004;2023-02-12T10:54:31;20.43;;;10.90;;
1178;SDS011;578;48.408;10.004;2023-02-12T10:56:59;22.20;;;12.23;;
1178;SDS011;578;48.408;10.004;2023-02-12T10:59:35;16.50;;;9.90;;
1178;SDS011;578;48.408;10.004;2023-02-12T11:02:02;20.63;;;10.57;;
1178;SDS011;578;48.408;10.004;2023-02-12T11:04:30;17.63;;;9.47;;
1178;SDS011;578;48.408;10.004;2023-02-12T11:06:58;16.53;;;10.10;;
1178;SDS011;578;48.408;10.004;2023-02-12T11:09:28;16.70;;;9.70;;
1178;SDS011;578;48.408;10.004;2023-02-12T11:11:55;15.20;;;8.00;;
1178;SDS011;578;48.408;10.004;2023-02-12T11:14:23;13.97;;;8.60;;
1178;SDS011;578;48.408;10.004;2023-02-12T11:16:52;12.50;;;7.37;;
1178;SDS011;578;48.408;10.004;2023-02-12T11:19:21;15.03;;;9.00;;
1178;SDS011;578;48.408;10.004;2023-02-12T11:21:49;13.50;;;7.70;;
1178;SDS011;578;48.408;10.004;2023-02-12T11:24:20;16.90;;;8.43;;
1178;SDS011;578;48.408;10.004;2023-02-12T11:26:59;12.13;;;7.07;;
1178;SDS011;578;48.408;10.004;2023-02-12T11:29:37;13.77;;;6.93;;
1178;SDS011;578;48.408;10.004;2023-02-12T11:32:06;12.57;;;6.73;;
1178;SDS011;578;48.408;10.004;2023-02-12T11:34:36;13.17;;;6.20;;
1178;SDS011;578;48.408;10.004;2023-02-12T11:37:03;7.80;;;3.93;;
1178;SDS011;578;48.408;10.004;2023-02-12T11:39:37;7.93;;;4.90;;
1178;SDS011;578;48.408;10.004;2023-02-12T11:42:05;7.13;;;3.83;;
1178;SDS011;578;48.408;10.004;2023-02-12T11:44:47;8.80;;;4.77;;
1178;SDS011;578;48.408;10.004;2023-02-12T11:47:18;9.70;;;5.00;;
1178;SDS011;578;48.408;10.004;2023-02-12T11:49:48;7.23;;;4.30;;
1178;SDS011;578;48.408;10.004;2023-02-12T11:52:17;8.17;;;4.47;;
1178;SDS011;578;48.408;10.004;2023-02-12T11:54:46;21.87;;;10.47;;
1178;SDS011;578;48.408;10.004;2023-02-12T11:57:34;11.80;;;5.67;;
1178;SDS011;578;48.408;10.004;2023-02-12T12:00:03;6.53;;;4.90;;
1178;SDS011;578;48.408;10.004;2023-02-12T12:02:38;7.50;;;5.40;;
1178;SDS011;578;48.408;10.004;2023-02-12T12:05:10;6.03;;;4.30;;
1178;SDS011;578;48.408;10.004;2023-02-12T12:07:42;6.23;;;4.03;;
1178;SDS011;578;48.408;10.004;2023-02-12T12:10:16;4.27;;;3.37;;
1178;SDS011;578;48.408;10.004;2023-02-12T12:12:48;7.20;;;4.17;;
1178;SDS011;578;48.408;10.004;2023-02-12T12:15:19;8.07;;;4.73;;
1178;SDS011;578;48.408;10.004;2023-02-12T12:18:13;7.40;;;3.97;;
1178;SDS011;578;48.408;10.004;2023-02-12T12:21:07;6.90;;;4.43;;
1178;SDS011;578;48.408;10.004;2023-02-12T12:23:39;7.40;;;4.83;;
1178;SDS011;578;48.408;10.004;2023-02-12T12:26:10;8.00;;;4.67;;
1178;SDS011;578;48.408;10.004;2023-02-12T12:28:41;8.20;;;4.70;;
1178;SDS011;578;48.408;10.004;2023-02-12T12:31:13;16.60;;;6.93;;
1178;SDS011;578;48.408;10.004;2023-02-12T12:33:44;9.70;;;6.00;;
1178;SDS011;578;48.408;10.004;2023-02-12T12:36:23;12.17;;;6.93;;
1178;SDS011;578;48.408;10.004;2023-02-12T12:39:10;19.53;;;8.77;;
1178;SDS011;578;48.408;10.004;2023-02-12T12:41:56;17.60;;;8.53;;
1178;SDS011;578;48.408;10.004;2023-02-12T12:44:44;14.83;;;9.27;;
1178;SDS011;578;48.408;10.004;2023-02-12T12:47:24;15.00;;;7.40;;
1178;SDS011;578;48.408;10.004;2023-02-12T12:50:01;15.60;;;9.37;;
1178;SDS011;578;48.408;10.004;2023-02-12T12:52:50;15.13;;;8.70;;
1178;SDS011;578;48.408;10.004;2023-02-12T12:55:36;20.80;;;9.27;;
1178;SDS011;578;48.408;10.004;2023-02-12T12:58:12;15.87;;;9.27;;
1178;SDS011;578;48.408;10.004;2023-02-12T13:00:52;17.60;;;10.20;;
1178;SDS011;578;48.408;10.004;2023-02-12T13:09:28;16.57;;;8.37;;
1178;SDS011;578;48.408;10.004;2023-02-12T13:12:14;20.40;;;8.40;;
1178;SDS011;578;48.408;10.004;2023-02-12T13:15:05;16.73;;;8.73;;
1178;SDS011;578;48.408;10.004;2023-02-12T13:17:43;16.07;;;9.10;;
1178;SDS011;578;48.408;10.004;2023-02-12T13:20:17;11.93;;;7.80;;
1178;SDS011;578;48.408;10.004;2023-02-12T13:22:50;17.03;;;7.90;;
1178;SDS011;578;48.408;10.004;2023-02-12T13:25:23;13.27;;;7.90;;
1178;SDS011;578;48.408;10.004;2023-02-12T13:27:56;16.40;;;9.10;;
1178;SDS011;578;48.408;10.004;2023-02-12T13:30:26;13.67;;;7.10;;
1178;SDS011;578;48.408;10.004;2023-02-12T13:33:03;14.33;;;7.67;;
1178;SDS011;578;48.408;10.004;2023-02-12T13:35:36;18.13;;;7.63;;
1178;SDS011;578;48.408;10.004;2023-02-12T13:38:08;12.83;;;7.50;;
1178;SDS011;578;48.408;10.004;2023-02-12T13:40:40;15.87;;;8.07;;
1178;SDS011;578;48.408;10.004;2023-02-12T13:43:11;13.70;;;7.80;;
1178;SDS011;578;48.408;10.004;2023-02-12T13:45:54;15.17;;;8.30;;
1178;SDS011;578;48.408;10.004;2023-02-12T13:48:32;12.57;;;7.50;;
1178;SDS011;578;48.408;10.004;2023-02-12T13:51:14;16.87;;;9.63;;
1178;SDS011;578;48.408;10.004;2023-02-12T13:53:53;17.40;;;8.60;;
1178;SDS011;578;48.408;10.004;2023-02-12T13:56:32;17.80;;;9.17;;
1178;SDS011;578;48.408;10.004;2023-02-12T14:02:05;15.20;;;8.30;;
1178;SDS011;578;48.408;10.004;2023-02-12T14:04:53;13.60;;;7.50;;
1178;SDS011;578;48.408;10.004;2023-02-12T14:07:21;15.97;;;8.80;;
1178;SDS011;578;48.408;10.004;2023-02-12T14:10:00;16.47;;;7.40;;
1178;SDS011;578;48.408;10.004;2023-02-12T14:12:31;15.03;;;8.17;;
1178;SDS011;578;48.408;10.004;2023-02-12T14:15:03;15.60;;;8.10;;
1178;SDS011;578;48.408;10.004;2023-02-12T14:17:40;14.77;;;7.20;;
1178;SDS011;578;48.408;10.004;2023-02-12T14:20:20;14.60;;;8.53;;
1178;SDS011;578;48.408;10.004;2023-02-12T14:22:57;14.07;;;7.80;;
1178;SDS011;578;48.408;10.004;2023-02-12T14:26:02;15.33;;;8.30;;
1178;SDS011;578;48.408;10.004;2023-02-12T14:28:33;16.77;;;9.40;;
1178;SDS011;578;48.408;10.004;2023-02-12T14:31:30;13.77;;;7.80;;
1178;SDS011;578;48.408;10.004;2023-02-12T14:37:11;11.60;;;7.70;;
1178;SDS011;578;48.408;10.004;2023-02-12T14:43:27;11.50;;;7.43;;
1178;SDS011;578;48.408;10.004;2023-02-12T14:45:58;15.13;;;6.87;;
1178;SDS011;578;48.408;10.004;2023-02-12T14:49:15;13.27;;;7.50;;
1178;SDS011;578;48.408;10.004;2023-02-12T14:51:46;12.80;;;6.70;;
1178;SDS011;578;48.408;10.004;2023-02-12T14:54:20;14.43;;;7.63;;
1178;SDS011;578;48.408;10.004;2023-02-12T14:56:54;13.30;;;8.23;;
1178;SDS011;578;48.408;10.004;2023-02-12T14:59:26;13.00;;;7.40;;
1178;SDS011;578;48.408;10.004;2023-02-12T15:01:59;14.20;;;8.03;;
1178;SDS011;578;48.408;10.004;2023-02-12T15:04:29;13.40;;;6.87;;
1178;SDS011;578;48.408;10.004;2023-02-12T15:06:58;14.33;;;7.40;;
1178;SDS011;578;48.408;10.004;2023-02-12T15:09:32;16.20;;;7.40;;
1178;SDS011;578;48.408;10.004;2023-02-12T15:12:04;12.23;;;7.30;;
1178;SDS011;578;48.408;10.004;2023-02-12T15:14:38;14.97;;;8.37;;
1178;SDS011;578;48.408;10.004;2023-02-12T15:17:08;13.67;;;8.37;;
1178;SDS011;578;48.408;10.004;2023-02-12T15:19:41;14.10;;;7.67;;
1178;SDS011;578;48.408;10.004;2023-02-12T15:22:18;14.93;;;9.00;;
1178;SDS011;578;48.408;10.004;2023-02-12T15:24:47;19.13;;;8.47;;
1178;SDS011;578;48.408;10.004;2023-02-12T15:27:14;15.20;;;8.23;;
1178;SDS011;578;48.408;10.004;2023-02-12T15:29:44;17.27;;;9.67;;
1178;SDS011;578;48.408;10.004;2023-02-12T15:32:14;12.93;;;8.50;;
1178;SDS011;578;48.408;10.004;2023-02-12T15:34:47;16.03;;;8.80;;
1178;SDS011;578;48.408;10.004;2023-02-12T15:37:17;15.80;;;8.20;;
1178;SDS011;578;48.408;10.004;2023-02-12T15:39:47;13.33;;;7.40;;
1178;SDS011;578;48.408;10.004;2023-02-12T15:42:23;12.90;;;7.60;;